This is the latest recevied weather packets stored in our database for station/object KP4FJC. If no packets are shown the sender has not sent any weather packets the latest 1 day(s).
| Time | Temp. | Humidity | Pressure | Rain* | Wind** | Luminosity | Snow |
|---|---|---|---|---|---|---|---|
| 1778044994 | 25.56° C | 88% | 1018.9 hPa | 0 mm | 0.45 m/s, 88° | 0 W/m² | - |
| 1778044691 | 25.56° C | 88% | 1018.9 hPa | 0 mm | 0.89 m/s, 75° | 0 W/m² | - |
| 1778044387 | 25.56° C | 88% | 1018.9 hPa | 0 mm | 0.45 m/s, 170° | 0 W/m² | - |
| 1778044085 | 25.56° C | 88% | 1018.8 hPa | 0 mm | 0.45 m/s, 152° | 0 W/m² | - |
| 1778043783 | 25.56° C | 88% | 1018.8 hPa | 0 mm | 0.45 m/s, 40° | 0 W/m² | - |
| 1778043479 | 25.56° C | 88% | 1019 hPa | 0 mm | 0.45 m/s, 202° | 0 W/m² | - |
| 1778043175 | 25.56° C | 87% | 1019 hPa | 0 mm | 0.45 m/s, 132° | 0 W/m² | - |
| 1778042873 | 25.56° C | 87% | 1019 hPa | 0 mm | 0 m/s | 0 W/m² | - |
| 1778042570 | 25.56° C | 87% | 1019.1 hPa | 0 mm | 0.89 m/s, 116° | 0 W/m² | - |
| 1778042267 | 25.56° C | 87% | 1018.9 hPa | 0 mm | 0.45 m/s, 121° | 0 W/m² | - |
| 1778041964 | 25.56° C | 87% | 1019.2 hPa | 0 mm | 0 m/s | 0 W/m² | - |
| 1778041663 | 25.56° C | 87% | 1018.9 hPa | 0 mm | 0.45 m/s, 74° | 0 W/m² | - |
| 1778041362 | 25.56° C | 87% | 1019.1 hPa | 0 mm | 0.89 m/s, 91° | 0 W/m² | - |
| 1778041060 | 25.56° C | 87% | 1019.1 hPa | 0 mm | 0.89 m/s, 62° | 0 W/m² | - |
| 1778040756 | 25.56° C | 86% | 1019 hPa | 0 mm | 0.45 m/s, 62° | 0 W/m² | - |
| 1778040454 | 25.56° C | 86% | 1019.2 hPa | 0 mm | 0 m/s | 0 W/m² | - |
| 1778040151 | 25.56° C | 86% | 1019.1 hPa | 0 mm | 0 m/s | 0 W/m² | - |
| 1778039847 | 25.56° C | 86% | 1019.1 hPa | 0 mm | 0.45 m/s, 69° | 0 W/m² | - |
| 1778039544 | 25.56° C | 86% | 1019.3 hPa | 0 mm | 0 m/s | 0 W/m² | - |
| 1778039241 | 25.56° C | 86% | 1019.1 hPa | 0 mm | 0 m/s | 0 W/m² | - |
| 1778038938 | 25.56° C | 86% | 1019.2 hPa | 0 mm | 0 m/s | 0 W/m² | - |
| 1778038636 | 25.56° C | 86% | 1019.3 hPa | 0 mm | 1.34 m/s, 122° | 0 W/m² | - |
| 1778038332 | 25.56° C | 86% | 1019.2 hPa | 0 mm | 0.45 m/s, 62° | 0 W/m² | - |
| 1778038029 | 25.56° C | 85% | 1019.2 hPa | 0 mm | 0.45 m/s, 46° | 0 W/m² | - |
| 1778037726 | 26.11° C | 85% | 1019.4 hPa | 0 mm | 1.34 m/s, 127° | 0 W/m² | - |
* Rain latest hour (hover to see other rain measurements)
** Current wind speed in m/s (hover to see current wind gust speed)